sensor_id;sensor_type;location;lat;lon;timestamp;pressure;altitude;pressure_sealevel;temperature;humidity
63808;BME280;49961;43.970;22.868;2023-03-20T00:00:50;101799.50;;;6.78;100.00
63808;BME280;49961;43.970;22.868;2023-03-20T00:01:51;101795.22;;;6.80;100.00
63808;BME280;49961;43.970;22.868;2023-03-20T00:02:52;101803.06;;;6.78;100.00
63808;BME280;49961;43.970;22.868;2023-03-20T00:03:52;101803.44;;;6.77;100.00
63808;BME280;49961;43.970;22.868;2023-03-20T00:04:53;101680.59;;;5.92;100.00
63808;BME280;49961;43.970;22.868;2023-03-20T00:05:53;101796.34;;;6.76;100.00
63808;BME280;49961;43.970;22.868;2023-03-20T00:06:53;101806.16;;;6.73;100.00
63808;BME280;49961;43.970;22.868;2023-03-20T00:07:55;101806.53;;;6.72;100.00
63808;BME280;49961;43.970;22.868;2023-03-20T00:08:57;101802.22;;;6.71;100.00
63808;BME280;49961;43.970;22.868;2023-03-20T00:09:57;101801.00;;;6.68;100.00
63808;BME280;49961;43.970;22.868;2023-03-20T00:10:58;101804.88;;;6.64;100.00
63808;BME280;49961;43.970;22.868;2023-03-20T00:11:58;101798.53;;;6.60;100.00
63808;BME280;49961;43.970;22.868;2023-03-20T00:12:59;101799.28;;;6.57;100.00
63808;BME280;49961;43.970;22.868;2023-03-20T00:14:09;101623.69;;;5.37;100.00
63808;BME280;49961;43.970;22.868;2023-03-20T00:15:21;101790.91;;;6.46;100.00
63808;BME280;49961;43.970;22.868;2023-03-20T00:16:24;101761.91;;;6.23;100.00
63808;BME280;49961;43.970;22.868;2023-03-20T00:17:26;101783.00;;;6.45;100.00
63808;BME280;49961;43.970;22.868;2023-03-20T00:18:26;101774.69;;;6.38;100.00
63808;BME280;49961;43.970;22.868;2023-03-20T00:19:28;101787.72;;;6.41;100.00
63808;BME280;49961;43.970;22.868;2023-03-20T00:20:28;101782.59;;;6.43;100.00
63808;BME280;49961;43.970;22.868;2023-03-20T00:21:29;101788.47;;;6.41;100.00
63808;BME280;49961;43.970;22.868;2023-03-20T00:22:30;101777.88;;;6.40;100.00
63808;BME280;49961;43.970;22.868;2023-03-20T00:23:31;101771.50;;;6.32;100.00
63808;BME280;49961;43.970;22.868;2023-03-20T00:24:32;101786.50;;;6.38;100.00
63808;BME280;49961;43.970;22.868;2023-03-20T00:25:32;101785.31;;;6.39;100.00
63808;BME280;49961;43.970;22.868;2023-03-20T00:26:34;101710.88;;;5.96;100.00
63808;BME280;49961;43.970;22.868;2023-03-20T00:27:35;101784.13;;;6.37;100.00
63808;BME280;49961;43.970;22.868;2023-03-20T00:28:41;101775.81;;;6.33;100.00
63808;BME280;49961;43.970;22.868;2023-03-20T00:29:43;101774.25;;;6.32;100.00
63808;BME280;49961;43.970;22.868;2023-03-20T00:30:43;101773.06;;;6.33;100.00
63808;BME280;49961;43.970;22.868;2023-03-20T00:31:44;101772.63;;;6.31;100.00
63808;BME280;49961;43.970;22.868;2023-03-20T00:32:45;101708.44;;;5.87;100.00
63808;BME280;49961;43.970;22.868;2023-03-20T00:33:45;101763.09;;;6.22;100.00
63808;BME280;49961;43.970;22.868;2023-03-20T00:34:46;101766.31;;;6.27;100.00
63808;BME280;49961;43.970;22.868;2023-03-20T00:35:47;101634.72;;;5.41;100.00
63808;BME280;49961;43.970;22.868;2023-03-20T00:36:47;101775.34;;;6.28;100.00
63808;BME280;49961;43.970;22.868;2023-03-20T00:37:48;101776.53;;;6.27;100.00
63808;BME280;49961;43.970;22.868;2023-03-20T00:38:49;101768.66;;;6.29;100.00
63808;BME280;49961;43.970;22.868;2023-03-20T00:39:50;101764.69;;;6.26;100.00
63808;BME280;49961;43.970;22.868;2023-03-20T00:40:51;101768.25;;;6.27;100.00
63808;BME280;49961;43.970;22.868;2023-03-20T00:41:54;101770.22;;;6.26;100.00
63808;BME280;49961;43.970;22.868;2023-03-20T00:43:00;101768.25;;;6.27;100.00
63808;BME280;49961;43.970;22.868;2023-03-20T00:44:17;101765.09;;;6.25;100.00
63808;BME280;49961;43.970;22.868;2023-03-20T00:45:19;101763.50;;;6.24;100.00
63808;BME280;49961;43.970;22.868;2023-03-20T00:46:20;101589.56;;;5.12;100.00
63808;BME280;49961;43.970;22.868;2023-03-20T00:47:22;101771.72;;;6.20;100.00
63808;BME280;49961;43.970;22.868;2023-03-20T00:48:23;101765.38;;;6.16;100.00
63808;BME280;49961;43.970;22.868;2023-03-20T00:49:28;101582.75;;;4.99;100.00
63808;BME280;49961;43.970;22.868;2023-03-20T00:50:30;101766.19;;;6.17;100.00
63808;BME280;49961;43.970;22.868;2023-03-20T00:51:31;101759.94;;;6.20;100.00
63808;BME280;49961;43.970;22.868;2023-03-20T00:52:31;101762.69;;;6.20;100.00
63808;BME280;49961;43.970;22.868;2023-03-20T00:53:32;101779.94;;;6.17;100.00
63808;BME280;49961;43.970;22.868;2023-03-20T00:54:32;101769.28;;;6.15;100.00
63808;BME280;49961;43.970;22.868;2023-03-20T00:55:33;101770.47;;;6.14;100.00
63808;BME280;49961;43.970;22.868;2023-03-20T00:56:42;101761.66;;;6.02;100.00
63808;BME280;49961;43.970;22.868;2023-03-20T00:57:53;101774.00;;;5.85;100.00
63808;BME280;49961;43.970;22.868;2023-03-20T00:58:55;101669.56;;;5.07;100.00
63808;BME280;49961;43.970;22.868;2023-03-20T01:00:00;101773.50;;;5.76;100.00
63808;BME280;49961;43.970;22.868;2023-03-20T01:01:04;101769.97;;;5.79;100.00
63808;BME280;49961;43.970;22.868;2023-03-20T01:02:05;101772.59;;;5.69;100.00
63808;BME280;49961;43.970;22.868;2023-03-20T01:03:24;101769.25;;;5.56;100.00
63808;BME280;49961;43.970;22.868;2023-03-20T01:04:30;101778.56;;;5.48;100.00
63808;BME280;49961;43.970;22.868;2023-03-20T01:05:33;101762.34;;;5.40;100.00
63808;BME280;49961;43.970;22.868;2023-03-20T01:06:33;101776.97;;;5.47;100.00
63808;BME280;49961;43.970;22.868;2023-03-20T01:07:34;101770.25;;;5.45;100.00
63808;BME280;49961;43.970;22.868;2023-03-20T01:08:34;101774.88;;;5.37;100.00
63808;BME280;49961;43.970;22.868;2023-03-20T01:09:35;101776.03;;;5.36;100.00
63808;BME280;49961;43.970;22.868;2023-03-20T01:10:35;101756.19;;;5.24;100.00
63808;BME280;49961;43.970;22.868;2023-03-20T01:11:36;101774.75;;;5.30;100.00
63808;BME280;49961;43.970;22.868;2023-03-20T01:12:38;101776.34;;;5.31;100.00
63808;BME280;49961;43.970;22.868;2023-03-20T01:13:39;101768.09;;;5.31;100.00
63808;BME280;49961;43.970;22.868;2023-03-20T01:14:41;101766.56;;;5.34;100.00
63808;BME280;49961;43.970;22.868;2023-03-20T01:15:41;101751.91;;;5.26;100.00
63808;BME280;49961;43.970;22.868;2023-03-20T01:16:43;101562.88;;;4.09;100.00
63808;BME280;49961;43.970;22.868;2023-03-20T01:17:44;101764.22;;;5.36;100.00
63808;BME280;49961;43.970;22.868;2023-03-20T01:18:44;101673.47;;;4.80;100.00
63808;BME280;49961;43.970;22.868;2023-03-20T01:19:45;101587.56;;;4.31;100.00
63808;BME280;49961;43.970;22.868;2023-03-20T01:20:47;101606.16;;;4.41;100.00
63808;BME280;49961;43.970;22.868;2023-03-20T01:21:47;101761.16;;;5.41;100.00
63808;BME280;49961;43.970;22.868;2023-03-20T01:22:48;101751.34;;;5.40;100.00
63808;BME280;49961;43.970;22.868;2023-03-20T01:23:49;101757.63;;;5.40;100.00
63808;BME280;49961;43.970;22.868;2023-03-20T01:24:49;101753.28;;;5.39;100.00
63808;BME280;49961;43.970;22.868;2023-03-20T01:25:50;101756.44;;;5.38;100.00
63808;BME280;49961;43.970;22.868;2023-03-20T01:26:50;101751.28;;;5.36;100.00
63808;BME280;49961;43.970;22.868;2023-03-20T01:27:53;101596.34;;;4.40;100.00
63808;BME280;49961;43.970;22.868;2023-03-20T01:28:54;101748.91;;;5.35;100.00
63808;BME280;49961;43.970;22.868;2023-03-20T01:29:54;101759.09;;;5.34;100.00
63808;BME280;49961;43.970;22.868;2023-03-20T01:30:55;101756.34;;;5.34;100.00
63808;BME280;49961;43.970;22.868;2023-03-20T01:31:55;101757.81;;;5.28;100.00
63808;BME280;49961;43.970;22.868;2023-03-20T01:32:56;101754.66;;;5.26;100.00
63808;BME280;49961;43.970;22.868;2023-03-20T01:33:56;101754.63;;;5.23;100.00
63808;BME280;49961;43.970;22.868;2023-03-20T01:34:57;101747.41;;;5.15;100.00
63808;BME280;49961;43.970;22.868;2023-03-20T01:35:58;101752.22;;;5.21;100.00
63808;BME280;49961;43.970;22.868;2023-03-20T01:36:58;101750.66;;;5.20;100.00
63808;BME280;49961;43.970;22.868;2023-03-20T01:37:59;101742.66;;;5.12;100.00
63808;BME280;49961;43.970;22.868;2023-03-20T01:39:00;101748.63;;;5.17;100.00
63808;BME280;49961;43.970;22.868;2023-03-20T01:40:00;101747.06;;;5.16;100.00
63808;BME280;49961;43.970;22.868;2023-03-20T01:41:15;101748.94;;;5.12;100.00
63808;BME280;49961;43.970;22.868;2023-03-20T01:42:16;101747.78;;;5.13;100.00
63808;BME280;49961;43.970;22.868;2023-03-20T01:43:19;101756.00;;;5.13;100.00
63808;BME280;49961;43.970;22.868;2023-03-20T01:44:27;101753.66;;;5.12;100.00
63808;BME280;49961;43.970;22.868;2023-03-20T01:45:33;101752.44;;;5.09;100.00
63808;BME280;49961;43.970;22.868;2023-03-20T01:46:35;101754.78;;;5.11;100.00
63808;BME280;49961;43.970;22.868;2023-03-20T01:47:37;101761.50;;;5.13;100.00
63808;BME280;49961;43.970;22.868;2023-03-20T01:51:26;101753.66;;;5.12;100.00
63808;BME280;49961;43.970;22.868;2023-03-20T01:52:27;101753.66;;;5.12;100.00
63808;BME280;49961;43.970;22.868;2023-03-20T01:53:27;101751.59;;;5.05;100.00
63808;BME280;49961;43.970;22.868;2023-03-20T01:54:32;101754.03;;;5.10;100.00
63808;BME280;49961;43.970;22.868;2023-03-20T01:55:36;101752.50;;;5.13;100.00
63808;BME280;49961;43.970;22.868;2023-03-20T01:56:45;101759.22;;;5.15;100.00
63808;BME280;49961;43.970;22.868;2023-03-20T01:57:50;101743.50;;;5.16;100.00
63808;BME280;49961;43.970;22.868;2023-03-20T01:58:57;101683.97;;;4.75;100.00
63808;BME280;49961;43.970;22.868;2023-03-20T02:00:03;101749.00;;;5.16;100.00
63808;BME280;49961;43.970;22.868;2023-03-20T02:01:07;101750.97;;;5.15;100.00
63808;BME280;49961;43.970;22.868;2023-03-20T02:02:11;101756.16;;;5.20;100.00
63808;BME280;49961;43.970;22.868;2023-03-20T02:03:14;101751.13;;;5.26;100.00
63808;BME280;49961;43.970;22.868;2023-03-20T02:04:15;101736.84;;;5.17;100.00
63808;BME280;49961;43.970;22.868;2023-03-20T02:05:19;101745.56;;;5.22;100.00
63808;BME280;49961;43.970;22.868;2023-03-20T02:06:22;101754.19;;;5.21;100.00
63808;BME280;49961;43.970;22.868;2023-03-20T02:07:23;101621.38;;;4.39;100.00
63808;BME280;49961;43.970;22.868;2023-03-20T02:08:29;101758.03;;;5.16;100.00
63808;BME280;49961;43.970;22.868;2023-03-20T02:09:30;101745.47;;;5.15;100.00
63808;BME280;49961;43.970;22.868;2023-03-20T02:10:30;101603.00;;;4.17;100.00
63808;BME280;49961;43.970;22.868;2023-03-20T02:11:31;101753.28;;;5.13;100.00
63808;BME280;49961;43.970;22.868;2023-03-20T02:12:32;101743.03;;;5.10;100.00
63808;BME280;49961;43.970;22.868;2023-03-20T02:13:34;101532.44;;;3.72;100.00
63808;BME280;49961;43.970;22.868;2023-03-20T02:14:35;101743.44;;;5.12;100.00
63808;BME280;49961;43.970;22.868;2023-03-20T02:16:54;101753.53;;;5.05;100.00
63808;BME280;49961;43.970;22.868;2023-03-20T02:17:54;101689.72;;;4.66;100.00
63808;BME280;49961;43.970;22.868;2023-03-20T02:18:55;101675.00;;;4.55;100.00
63808;BME280;49961;43.970;22.868;2023-03-20T02:20:06;101753.22;;;5.10;100.00
63808;BME280;49961;43.970;22.868;2023-03-20T02:26:49;101749.91;;;5.01;100.00
63808;BME280;49961;43.970;22.868;2023-03-20T02:31:09;101754.81;;;4.88;100.00
63808;BME280;49961;43.970;22.868;2023-03-20T02:37:53;101750.22;;;4.96;100.00
63808;BME280;49961;43.970;22.868;2023-03-20T02:41:40;101760.13;;;5.00;100.00
63808;BME280;49961;43.970;22.868;2023-03-20T02:43:24;101764.56;;;5.08;100.00
63808;BME280;49961;43.970;22.868;2023-03-20T02:44:55;101675.97;;;4.44;100.00
63808;BME280;49961;43.970;22.868;2023-03-20T02:47:58;101548.28;;;3.60;100.00
63808;BME280;49961;43.970;22.868;2023-03-20T02:51:40;101760.69;;;5.09;100.00
63808;BME280;49961;43.970;22.868;2023-03-20T02:54:25;101774.47;;;5.13;100.00
63808;BME280;49961;43.970;22.868;2023-03-20T02:55:38;101743.84;;;5.14;100.00
63808;BME280;49961;43.970;22.868;2023-03-20T02:57:06;101745.94;;;5.21;100.00
63808;BME280;49961;43.970;22.868;2023-03-20T02:58:26;101755.03;;;5.25;100.00
63808;BME280;49961;43.970;22.868;2023-03-20T02:59:54;101756.25;;;5.27;100.00
63808;BME280;49961;43.970;22.868;2023-03-20T03:01:05;101754.31;;;5.28;100.00
63808;BME280;49961;43.970;22.868;2023-03-20T03:02:13;101757.47;;;5.30;100.00
63808;BME280;49961;43.970;22.868;2023-03-20T03:03:27;101759.16;;;5.38;100.00
63808;BME280;49961;43.970;22.868;2023-03-20T03:04:35;101767.50;;;5.45;100.00
63808;BME280;49961;43.970;22.868;2023-03-20T03:05:46;101751.69;;;5.38;100.00
63808;BME280;49961;43.970;22.868;2023-03-20T03:06:50;101779.31;;;5.45;100.00
63808;BME280;49961;43.970;22.868;2023-03-20T03:07:56;101742.50;;;5.27;100.00
63808;BME280;49961;43.970;22.868;2023-03-20T03:09:18;101776.97;;;5.47;100.00
63808;BME280;49961;43.970;22.868;2023-03-20T03:10:25;101782.44;;;5.44;100.00
63808;BME280;49961;43.970;22.868;2023-03-20T03:11:31;101718.97;;;5.04;100.00
63808;BME280;49961;43.970;22.868;2023-03-20T03:12:43;101667.13;;;4.54;100.00
63808;BME280;49961;43.970;22.868;2023-03-20T03:13:52;101782.31;;;5.37;100.00
63808;BME280;49961;43.970;22.868;2023-03-20T03:14:56;101750.16;;;5.15;100.00
63808;BME280;49961;43.970;22.868;2023-03-20T03:16:02;101769.69;;;5.32;100.00
63808;BME280;49961;43.970;22.868;2023-03-20T03:17:06;101774.75;;;5.30;100.00
63808;BME280;49961;43.970;22.868;2023-03-20T03:18:13;101776.59;;;5.23;100.00
63808;BME280;49961;43.970;22.868;2023-03-20T03:19:18;101783.22;;;5.22;100.00
63808;BME280;49961;43.970;22.868;2023-03-20T03:20:32;101644.75;;;4.29;100.00
63808;BME280;49961;43.970;22.868;2023-03-20T03:21:35;101783.53;;;5.17;100.00
63808;BME280;49961;43.970;22.868;2023-03-20T03:22:37;101777.28;;;5.16;100.00
63808;BME280;49961;43.970;22.868;2023-03-20T03:23:44;101638.81;;;4.27;100.00
63808;BME280;49961;43.970;22.868;2023-03-20T03:24:48;101757.50;;;5.07;100.00
63808;BME280;49961;43.970;22.868;2023-03-20T03:25:51;101778.00;;;5.13;100.00
63808;BME280;49961;43.970;22.868;2023-03-20T03:26:53;101767.41;;;5.12;100.00
63808;BME280;49961;43.970;22.868;2023-03-20T03:28:04;101774.16;;;5.18;100.00
63808;BME280;49961;43.970;22.868;2023-03-20T03:29:12;101665.91;;;4.51;100.00
63808;BME280;49961;43.970;22.868;2023-03-20T03:30:17;101774.28;;;5.25;100.00
63808;BME280;49961;43.970;22.868;2023-03-20T03:31:21;101749.78;;;5.16;100.00
63808;BME280;49961;43.970;22.868;2023-03-20T03:33:31;101762.59;;;5.31;100.00
63808;BME280;49961;43.970;22.868;2023-03-20T03:34:34;101760.25;;;5.33;100.00
63808;BME280;49961;43.970;22.868;2023-03-20T03:35:37;101762.28;;;5.36;100.00
63808;BME280;49961;43.970;22.868;2023-03-20T03:36:58;101763.13;;;5.40;100.00
63808;BME280;49961;43.970;22.868;2023-03-20T03:39:53;101743.41;;;5.35;100.00
63808;BME280;49961;43.970;22.868;2023-03-20T03:41:25;101754.94;;;5.44;100.00
63808;BME280;49961;43.970;22.868;2023-03-20T03:42:54;101752.56;;;5.42;100.00
63808;BME280;49961;43.970;22.868;2023-03-20T03:46:03;101757.31;;;5.45;100.00
63808;BME280;49961;43.970;22.868;2023-03-20T03:48:09;101671.72;;;4.95;100.00
63808;BME280;49961;43.970;22.868;2023-03-20T03:49:17;101645.56;;;4.78;100.00
63808;BME280;49961;43.970;22.868;2023-03-20T03:50:27;101716.47;;;5.18;100.00
63808;BME280;49961;43.970;22.868;2023-03-20T03:51:31;101747.38;;;5.37;100.00
63808;BME280;49961;43.970;22.868;2023-03-20T03:52:33;101751.13;;;5.52;100.00
63808;BME280;49961;43.970;22.868;2023-03-20T03:54:18;101751.16;;;5.55;100.00
63808;BME280;49961;43.970;22.868;2023-03-20T03:55:23;101748.03;;;5.57;100.00
63808;BME280;49961;43.970;22.868;2023-03-20T03:56:26;101753.53;;;5.57;100.00
63808;BME280;49961;43.970;22.868;2023-03-20T03:57:33;101743.34;;;5.57;100.00
63808;BME280;49961;43.970;22.868;2023-03-20T03:58:40;101742.22;;;5.62;100.00
63808;BME280;49961;43.970;22.868;2023-03-20T03:59:46;101685.97;;;5.26;100.00
63808;BME280;49961;43.970;22.868;2023-03-20T04:00:51;101742.38;;;5.72;100.00
63808;BME280;49961;43.970;22.868;2023-03-20T04:01:54;101735.72;;;5.73;100.00
63808;BME280;49961;43.970;22.868;2023-03-20T04:02:57;101743.59;;;5.75;100.00
63808;BME280;49961;43.970;22.868;2023-03-20T04:03:59;101746.34;;;5.75;100.00
63808;BME280;49961;43.970;22.868;2023-03-20T04:05:01;101745.97;;;5.76;100.00
63808;BME280;49961;43.970;22.868;2023-03-20T04:06:03;101740.88;;;5.78;100.00
63808;BME280;49961;43.970;22.868;2023-03-20T04:07:05;101736.06;;;5.72;100.00
63808;BME280;49961;43.970;22.868;2023-03-20T04:08:06;101739.38;;;5.81;100.00
63808;BME280;49961;43.970;22.868;2023-03-20T04:09:07;101739.78;;;5.83;100.00
63808;BME280;49961;43.970;22.868;2023-03-20T04:10:08;101741.44;;;5.87;100.00
63808;BME280;49961;43.970;22.868;2023-03-20T04:11:16;101738.31;;;5.89;100.00
63808;BME280;49961;43.970;22.868;2023-03-20T04:12:38;101748.50;;;5.88;100.00
63808;BME280;49961;43.970;22.868;2023-03-20T04:13:38;101741.06;;;5.89;100.00
63808;BME280;49961;43.970;22.868;2023-03-20T04:14:39;101738.66;;;5.84;100.00
63808;BME280;49961;43.970;22.868;2023-03-20T04:15:40;101736.25;;;5.82;100.00
63808;BME280;49961;43.970;22.868;2023-03-20T04:16:42;101745.53;;;5.74;100.00
63808;BME280;49961;43.970;22.868;2023-03-20T04:17:43;101747.34;;;5.63;100.00
63808;BME280;49961;43.970;22.868;2023-03-20T04:18:43;101740.16;;;5.55;100.00
63808;BME280;49961;43.970;22.868;2023-03-20T04:19:44;101742.88;;;5.52;100.00
63808;BME280;49961;43.970;22.868;2023-03-20T04:20:45;101729.66;;;5.35;100.00
63808;BME280;49961;43.970;22.868;2023-03-20T04:21:46;101740.25;;;5.33;100.00
63808;BME280;49961;43.970;22.868;2023-03-20T04:22:46;101741.34;;;5.28;100.00
63808;BME280;49961;43.970;22.868;2023-03-20T04:23:47;101729.72;;;5.12;100.00
63808;BME280;49961;43.970;22.868;2023-03-20T04:24:47;101728.38;;;5.03;100.00
63808;BME280;49961;43.970;22.868;2023-03-20T04:25:48;101741.31;;;5.02;100.00
63808;BME280;49961;43.970;22.868;2023-03-20T04:26:48;101743.59;;;4.97;100.00
63808;BME280;49961;43.970;22.868;2023-03-20T04:27:49;101749.72;;;4.87;100.00
63808;BME280;49961;43.970;22.868;2023-03-20T04:28:50;101752.31;;;4.80;100.00
63808;BME280;49961;43.970;22.868;2023-03-20T04:29:51;101756.63;;;4.81;100.00
63808;BME280;49961;43.970;22.868;2023-03-20T04:30:56;101740.41;;;4.72;100.00
63808;BME280;49961;43.970;22.868;2023-03-20T04:31:57;101751.03;;;4.74;100.00
63808;BME280;49961;43.970;22.868;2023-03-20T04:32:58;101749.69;;;4.64;100.00
63808;BME280;49961;43.970;22.868;2023-03-20T04:33:59;101755.19;;;4.64;100.00
63808;BME280;49961;43.970;22.868;2023-03-20T04:34:59;101755.91;;;4.61;100.00
63808;BME280;49961;43.970;22.868;2023-03-20T04:36:00;101748.03;;;4.60;100.00
63808;BME280;49961;43.970;22.868;2023-03-20T04:37:00;101757.88;;;4.61;100.00
63808;BME280;49961;43.970;22.868;2023-03-20T04:38:01;101750.41;;;4.61;100.00
63808;BME280;49961;43.970;22.868;2023-03-20T04:39:02;101750.06;;;4.63;100.00
63808;BME280;49961;43.970;22.868;2023-03-20T04:40:03;101728.88;;;4.41;100.00
63808;BME280;49961;43.970;22.868;2023-03-20T04:41:04;101777.09;;;4.61;100.00
63808;BME280;49961;43.970;22.868;2023-03-20T04:42:05;101766.16;;;4.64;100.00
63808;BME280;49961;43.970;22.868;2023-03-20T04:43:05;101757.56;;;4.66;100.00
63808;BME280;49961;43.970;22.868;2023-03-20T04:44:06;101755.97;;;4.65;100.00
63808;BME280;49961;43.970;22.868;2023-03-20T04:45:07;101763.47;;;4.68;100.00
63808;BME280;49961;43.970;22.868;2023-03-20T04:46:08;101722.28;;;4.45;100.00
63808;BME280;49961;43.970;22.868;2023-03-20T04:47:08;101763.91;;;4.70;100.00
63808;BME280;49961;43.970;22.868;2023-03-20T04:48:09;101764.75;;;4.74;100.00
63808;BME280;49961;43.970;22.868;2023-03-20T04:49:09;101765.19;;;4.76;100.00
63808;BME280;49961;43.970;22.868;2023-03-20T04:50:10;101769.53;;;4.77;100.00
63808;BME280;49961;43.970;22.868;2023-03-20T04:51:11;101765.19;;;4.76;100.00
63808;BME280;49961;43.970;22.868;2023-03-20T04:52:11;101771.84;;;4.75;100.00
63808;BME280;49961;43.970;22.868;2023-03-20T04:53:13;101768.78;;;4.80;100.00
63808;BME280;49961;43.970;22.868;2023-03-20T04:54:14;101755.38;;;4.75;100.00
63808;BME280;49961;43.970;22.868;2023-03-20T04:55:15;101763.75;;;4.82;100.00
63808;BME280;49961;43.970;22.868;2023-03-20T04:56:16;101766.03;;;4.80;100.00
63808;BME280;49961;43.970;22.868;2023-03-20T04:57:16;101737.50;;;4.62;100.00
63808;BME280;49961;43.970;22.868;2023-03-20T04:58:16;101687.91;;;4.32;100.00
63808;BME280;49961;43.970;22.868;2023-03-20T04:59:17;101764.56;;;4.86;100.00
63808;BME280;49961;43.970;22.868;2023-03-20T05:00:18;101761.09;;;4.89;100.00
63808;BME280;49961;43.970;22.868;2023-03-20T05:01:19;101767.47;;;4.93;100.00
63808;BME280;49961;43.970;22.868;2023-03-20T05:02:19;101765.56;;;4.97;100.00
63808;BME280;49961;43.970;22.868;2023-03-20T05:03:20;101766.03;;;5.02;100.00
63808;BME280;49961;43.970;22.868;2023-03-20T05:04:21;101752.75;;;5.04;100.00
63808;BME280;49961;43.970;22.868;2023-03-20T05:05:21;101759.47;;;5.07;100.00
63808;BME280;49961;43.970;22.868;2023-03-20T05:06:22;101764.97;;;5.07;100.00
63808;BME280;49961;43.970;22.868;2023-03-20T05:07:23;101762.63;;;5.09;100.00
63808;BME280;49961;43.970;22.868;2023-03-20T05:08:23;101763.03;;;5.11;100.00
63808;BME280;49961;43.970;22.868;2023-03-20T05:09:25;101761.16;;;5.15;100.00
63808;BME280;49961;43.970;22.868;2023-03-20T05:10:25;101743.03;;;5.10;100.00
63808;BME280;49961;43.970;22.868;2023-03-20T05:11:26;101771.22;;;5.30;100.00
63808;BME280;49961;43.970;22.868;2023-03-20T05:12:27;101548.06;;;3.91;100.00
63808;BME280;49961;43.970;22.868;2023-03-20T05:13:27;101763.81;;;5.34;100.00
63808;BME280;49961;43.970;22.868;2023-03-20T05:14:28;101761.91;;;5.38;100.00
63808;BME280;49961;43.970;22.868;2023-03-20T05:15:28;101762.38;;;5.43;100.00
63808;BME280;49961;43.970;22.868;2023-03-20T05:16:28;101756.56;;;5.48;100.00
63808;BME280;49961;43.970;22.868;2023-03-20T05:17:29;101766.47;;;5.53;100.00
63808;BME280;49961;43.970;22.868;2023-03-20T05:18:29;101777.97;;;5.62;100.00
63808;BME280;49961;43.970;22.868;2023-03-20T05:19:30;101776.03;;;5.62;100.00
63808;BME280;49961;43.970;22.868;2023-03-20T05:20:30;101773.69;;;5.64;100.00
63808;BME280;49961;43.970;22.868;2023-03-20T05:21:31;101773.72;;;5.68;100.00
63808;BME280;49961;43.970;22.868;2023-03-20T05:22:32;101770.28;;;5.74;100.00
63808;BME280;49961;43.970;22.868;2023-03-20T05:23:32;101777.78;;;5.74;100.00
63808;BME280;49961;43.970;22.868;2023-03-20T05:24:33;101773.50;;;5.76;100.00
63808;BME280;49961;43.970;22.868;2023-03-20T05:25:33;101634.41;;;4.90;100.00
63808;BME280;49961;43.970;22.868;2023-03-20T05:26:33;101732.31;;;5.54;100.00
63808;BME280;49961;43.970;22.868;2023-03-20T05:27:34;101773.09;;;5.78;100.00
63808;BME280;49961;43.970;22.868;2023-03-20T05:28:35;101772.06;;;5.86;100.00
63808;BME280;49961;43.970;22.868;2023-03-20T05:29:36;101773.25;;;5.85;100.00
63808;BME280;49961;43.970;22.868;2023-03-20T05:30:37;101779.25;;;5.94;100.00
63808;BME280;49961;43.970;22.868;2023-03-20T05:31:38;101784.59;;;5.83;100.00
63808;BME280;49961;43.970;22.868;2023-03-20T05:32:38;101784.69;;;5.90;100.00
63808;BME280;49961;43.970;22.868;2023-03-20T05:33:40;101780.03;;;5.94;100.00
63808;BME280;49961;43.970;22.868;2023-03-20T05:34:40;101780.47;;;5.96;100.00
63808;BME280;49961;43.970;22.868;2023-03-20T05:35:41;101777.00;;;6.03;100.00
63808;BME280;49961;43.970;22.868;2023-03-20T05:36:41;101777.03;;;6.06;100.00
63808;BME280;49961;43.970;22.868;2023-03-20T05:37:42;101777.88;;;6.10;100.00
63808;BME280;49961;43.970;22.868;2023-03-20T05:38:42;101789.00;;;6.17;100.00
63808;BME280;49961;43.970;22.868;2023-03-20T05:39:42;101778.81;;;6.21;100.00
63808;BME280;49961;43.970;22.868;2023-03-20T05:40:43;101749.50;;;6.06;100.00
63808;BME280;49961;43.970;22.868;2023-03-20T05:41:43;101774.16;;;6.29;100.00
63808;BME280;49961;43.970;22.868;2023-03-20T05:42:44;101703.97;;;5.79;100.00
63808;BME280;49961;43.970;22.868;2023-03-20T05:43:44;101770.28;;;6.30;100.00
63808;BME280;49961;43.970;22.868;2023-03-20T05:44:45;101771.50;;;6.32;100.00
63808;BME280;49961;43.970;22.868;2023-03-20T05:45:46;101707.28;;;5.92;100.00
63808;BME280;49961;43.970;22.868;2023-03-20T05:46:46;101774.34;;;6.43;100.00
63808;BME280;49961;43.970;22.868;2023-03-20T05:47:46;101577.97;;;5.26;100.00
63808;BME280;49961;43.970;22.868;2023-03-20T05:48:47;101713.25;;;5.97;100.00
63808;BME280;49961;43.970;22.868;2023-03-20T05:49:48;101774.47;;;6.53;100.00
63808;BME280;49961;43.970;22.868;2023-03-20T05:50:48;101747.16;;;6.38;100.00
63808;BME280;49961;43.970;22.868;2023-03-20T05:51:49;101763.50;;;6.57;100.00
63808;BME280;49961;43.970;22.868;2023-03-20T05:52:49;101649.81;;;5.83;100.00
63808;BME280;49961;43.970;22.868;2023-03-20T05:53:50;101771.06;;;6.67;100.00
63808;BME280;49961;43.970;22.868;2023-03-20T05:54:50;101777.00;;;6.72;100.00
63808;BME280;49961;43.970;22.868;2023-03-20T05:55:51;101779.81;;;6.76;100.00
63808;BME280;49961;43.970;22.868;2023-03-20T05:56:51;101772.31;;;6.73;100.00
63808;BME280;49961;43.970;22.868;2023-03-20T05:57:51;101783.00;;;6.81;100.00
63808;BME280;49961;43.970;22.868;2023-03-20T05:58:52;101779.13;;;6.86;100.00
63808;BME280;49961;43.970;22.868;2023-03-20T05:59:52;101606.59;;;5.84;100.00
63808;BME280;49961;43.970;22.868;2023-03-20T06:00:53;101778.84;;;6.98;100.00